createdAt,value
2022-12-18T00:01:34.947Z,85.67
2022-12-18T00:04:06.669Z,85.36
2022-12-18T00:06:33.826Z,85.54
2022-12-18T00:09:01.826Z,84.94
2022-12-18T00:11:30.537Z,84.89
2022-12-18T00:13:58.710Z,84.86
2022-12-18T00:16:27.659Z,85.26
2022-12-18T00:18:56.602Z,85.72
2022-12-18T00:21:23.363Z,85.74
2022-12-18T00:23:53.031Z,84.74
2022-12-18T00:26:31.283Z,85.13
2022-12-18T00:29:08.022Z,86.24
2022-12-18T00:31:35.484Z,86.54
2022-12-18T00:34:02.585Z,86.03
2022-12-18T00:36:32.471Z,86.25
2022-12-18T00:39:00.342Z,86.16
2022-12-18T00:41:46.517Z,87.50
2022-12-18T00:44:15.406Z,87.17
2022-12-18T00:46:43.551Z,87.85
2022-12-18T00:49:10.797Z,88.63
2022-12-18T00:51:37.536Z,87.66
2022-12-18T00:54:03.940Z,87.21
2022-12-18T00:56:30.815Z,87.58
2022-12-18T00:58:57.114Z,87.66
2022-12-18T01:01:23.832Z,88.32
2022-12-18T01:03:50.804Z,88.37
2022-12-18T01:06:17.736Z,87.41
2022-12-18T01:08:44.793Z,88.19
2022-12-18T01:11:14.350Z,87.52
2022-12-18T01:13:41.785Z,89.27
2022-12-18T01:16:09.681Z,89.01
2022-12-18T01:18:37.047Z,88.33
2022-12-18T01:21:08.569Z,88.45
2022-12-18T01:23:35.145Z,88.45
2022-12-18T01:26:09.759Z,88.10
2022-12-18T01:28:36.750Z,88.49
2022-12-18T01:31:15.778Z,88.51
2022-12-18T01:33:42.269Z,87.57
2022-12-18T01:36:10.217Z,87.85
2022-12-18T01:38:36.642Z,87.39
2022-12-18T01:41:03.557Z,87.36
2022-12-18T01:43:59.154Z,88.09
2022-12-18T01:46:27.541Z,87.62
2022-12-18T01:49:03.487Z,87.56
2022-12-18T01:51:31.529Z,87.08
2022-12-18T01:53:58.851Z,87.98
2022-12-18T01:56:25.533Z,87.69
2022-12-18T01:59:01.938Z,87.51
2022-12-18T02:01:30.819Z,87.97
2022-12-18T02:03:57.445Z,87.74
2022-12-18T02:06:44.442Z,87.72
2022-12-18T02:09:19.165Z,87.35
2022-12-18T02:12:19.226Z,87.67
2022-12-18T02:14:56.100Z,86.90
2022-12-18T02:17:30.433Z,86.99
2022-12-18T02:20:29.116Z,86.89
2022-12-18T02:23:19.789Z,87.43
2022-12-18T02:26:07.889Z,87.94
2022-12-18T02:28:42.522Z,87.84
2022-12-18T02:31:12.601Z,86.56
2022-12-18T02:33:41.787Z,87.57
2022-12-18T02:36:10.646Z,87.51
2022-12-18T02:38:37.721Z,87.22
2022-12-18T02:41:06.081Z,86.66
2022-12-18T02:43:32.651Z,87.05
2022-12-18T02:46:01.451Z,86.46
2022-12-18T02:48:34.811Z,86.03
2022-12-18T02:51:13.986Z,85.68
2022-12-18T02:53:56.326Z,86.50
2022-12-18T02:56:31.534Z,86.78
2022-12-18T02:59:07.556Z,87.24
2022-12-18T03:01:47.839Z,87.97
2022-12-18T03:04:17.964Z,88.01
2022-12-18T03:06:49.500Z,87.18
2022-12-18T03:09:22.443Z,87.73
2022-12-18T03:12:15.674Z,87.90
2022-12-18T03:14:44.926Z,88.28
2022-12-18T03:17:15.664Z,89.18
2022-12-18T03:19:44.848Z,88.18
2022-12-18T03:22:11.772Z,88.00
2022-12-18T03:24:40.426Z,88.45
2022-12-18T03:27:12.369Z,88.50
2022-12-18T03:29:43.558Z,87.74
2022-12-18T03:32:18.830Z,88.78
2022-12-18T03:34:49.090Z,88.60
2022-12-18T03:37:15.622Z,88.36
2022-12-18T03:39:42.633Z,88.57
2022-12-18T03:42:28.032Z,88.27
2022-12-18T03:44:54.653Z,88.08
2022-12-18T03:47:43.743Z,88.84
2022-12-18T03:50:24.336Z,88.34
2022-12-18T03:52:58.563Z,88.57
2022-12-18T03:55:27.263Z,88.07
2022-12-18T03:57:55.163Z,88.20
2022-12-18T04:00:22.038Z,87.79
2022-12-18T04:02:52.991Z,87.48
2022-12-18T04:05:21.509Z,87.83
2022-12-18T04:07:50.335Z,87.09
2022-12-18T04:10:17.926Z,87.06
2022-12-18T04:12:44.241Z,87.49
2022-12-18T04:15:12.570Z,87.34
2022-12-18T04:17:42.577Z,87.54
2022-12-18T04:20:09.451Z,87.68
2022-12-18T04:22:36.426Z,86.88
2022-12-18T04:25:03.156Z,86.79
2022-12-18T04:27:30.230Z,87.32
2022-12-18T04:29:56.546Z,87.52
2022-12-18T04:32:23.253Z,87.61
2022-12-18T04:34:49.652Z,87.67
2022-12-18T04:37:16.011Z,88.15
2022-12-18T04:39:42.660Z,87.67
2022-12-18T04:42:08.989Z,87.30
2022-12-18T04:44:35.706Z,87.40
2022-12-18T04:47:02.633Z,87.09
2022-12-18T04:49:28.971Z,87.19
2022-12-18T04:51:55.350Z,87.50
2022-12-18T04:54:22.545Z,87.56
2022-12-18T04:56:48.892Z,88.32
2022-12-18T04:59:15.213Z,87.61
2022-12-18T05:01:42.154Z,86.69
2022-12-18T05:04:08.758Z,87.29
2022-12-18T05:06:35.139Z,86.51
2022-12-18T05:09:02.013Z,87.02
2022-12-18T05:11:28.338Z,86.71
2022-12-18T05:13:57.558Z,86.23
2022-12-18T05:16:24.394Z,86.44
2022-12-18T05:18:50.822Z,86.92
2022-12-18T05:21:17.145Z,86.63
2022-12-18T05:23:44.164Z,87.14
2022-12-18T05:26:17.738Z,86.96
2022-12-18T05:28:44.887Z,87.27
2022-12-18T05:31:11.422Z,86.58
2022-12-18T05:33:38.473Z,87.35
2022-12-18T05:36:08.171Z,87.40
2022-12-18T05:38:36.719Z,87.29
2022-12-18T05:41:04.580Z,87.75
2022-12-18T05:43:30.927Z,87.19
2022-12-18T05:45:58.355Z,87.97
2022-12-18T05:48:24.734Z,88.30
2022-12-18T05:50:51.684Z,88.29
2022-12-18T05:53:20.250Z,87.30
2022-12-18T05:55:47.703Z,87.67
2022-12-18T05:58:15.621Z,87.73
2022-12-18T06:00:44.875Z,87.64
2022-12-18T06:03:12.804Z,87.36
2022-12-18T06:05:42.086Z,87.07
2022-12-18T06:08:08.718Z,87.44
2022-12-18T06:10:35.245Z,86.95
2022-12-18T06:13:02.349Z,87.67
2022-12-18T06:15:28.817Z,87.87
2022-12-18T06:17:55.182Z,88.24
2022-12-18T06:20:22.266Z,88.54
2022-12-18T06:22:48.766Z,88.10
2022-12-18T06:25:16.338Z,88.04
2022-12-18T06:27:43.213Z,87.46
2022-12-18T06:30:11.219Z,87.44
2022-12-18T06:32:37.565Z,86.93
2022-12-18T06:35:05.117Z,87.62
2022-12-18T06:37:32.372Z,87.75
2022-12-18T06:39:59.093Z,87.44
2022-12-18T06:42:25.996Z,87.38
2022-12-18T06:44:52.837Z,87.50
2022-12-18T06:47:19.526Z,87.69
2022-12-18T06:49:46.421Z,87.64
2022-12-18T06:52:12.870Z,87.79
2022-12-18T06:54:39.222Z,87.19
2022-12-18T06:57:05.877Z,87.34
2022-12-18T06:59:32.282Z,87.52
2022-12-18T07:01:58.686Z,87.90
2022-12-18T07:04:32.744Z,87.71
2022-12-18T07:06:59.091Z,86.94
2022-12-18T07:09:26.193Z,87.05
2022-12-18T07:11:53.594Z,87.66
2022-12-18T07:14:20.108Z,87.37
2022-12-18T07:16:46.455Z,87.55
2022-12-18T07:19:13.366Z,87.53
2022-12-18T07:21:39.689Z,87.78
2022-12-18T07:24:06.787Z,87.76
2022-12-18T07:26:33.580Z,87.24
2022-12-18T07:28:59.940Z,87.49
2022-12-18T07:31:26.943Z,87.21
2022-12-18T07:33:54.057Z,87.93
2022-12-18T07:36:20.906Z,87.28
2022-12-18T07:38:51.080Z,87.36
2022-12-18T07:41:18.080Z,87.69
2022-12-18T07:43:44.815Z,88.11
2022-12-18T07:46:13.639Z,88.83
2022-12-18T07:48:41.724Z,88.19
2022-12-18T07:51:09.092Z,88.36
2022-12-18T07:53:37.510Z,88.21
2022-12-18T07:58:54.515Z,88.15
2022-12-18T08:01:21.368Z,89.15
2022-12-18T08:03:48.083Z,89.84
2022-12-18T08:06:14.621Z,89.12
2022-12-18T08:08:42.730Z,88.82
2022-12-18T08:11:09.094Z,88.57
2022-12-18T08:13:35.434Z,89.02
2022-12-18T08:16:08.175Z,88.84
2022-12-18T08:18:36.800Z,87.83
2022-12-18T08:21:31.759Z,88.33
2022-12-18T08:24:00.377Z,87.90
2022-12-18T08:26:29.925Z,87.64
2022-12-18T08:28:58.052Z,88.06
2022-12-18T08:31:26.509Z,88.75
2022-12-18T08:33:54.510Z,88.48
2022-12-18T08:36:23.231Z,87.68
2022-12-18T08:38:51.179Z,87.86
2022-12-18T08:41:18.999Z,87.90
2022-12-18T08:44:04.376Z,87.79
2022-12-18T08:46:38.133Z,87.43
2022-12-18T08:49:05.301Z,86.45
2022-12-18T08:51:31.823Z,85.59
2022-12-18T08:53:58.623Z,86.63
2022-12-18T08:56:25.331Z,86.73
2022-12-18T08:58:54.142Z,85.80
2022-12-18T09:01:21.212Z,84.96
2022-12-18T09:03:48.099Z,85.81
2022-12-18T09:06:17.002Z,87.68
2022-12-18T09:08:44.783Z,87.06
2022-12-18T09:11:21.912Z,86.23
2022-12-18T09:13:48.392Z,85.94
2022-12-18T09:16:16.231Z,87.34
2022-12-18T09:18:43.204Z,86.50
2022-12-18T09:21:14.881Z,87.12
2022-12-18T09:23:42.219Z,85.06
2022-12-18T09:26:08.769Z,85.01
2022-12-18T09:28:35.309Z,85.51
2022-12-18T09:31:07.927Z,84.55
2022-12-18T09:33:38.049Z,85.03
2022-12-18T09:36:08.406Z,84.80
2022-12-18T09:38:35.732Z,84.18
2022-12-18T09:41:24.112Z,84.92
2022-12-18T09:43:54.886Z,85.12
2022-12-18T09:46:35.860Z,85.17
2022-12-18T09:49:06.854Z,84.64
2022-12-18T09:51:39.789Z,85.07
2022-12-18T09:54:13.370Z,85.79
2022-12-18T09:56:43.715Z,84.48
2022-12-18T09:59:20.464Z,86.15
2022-12-18T10:01:47.504Z,86.36
2022-12-18T10:04:13.985Z,88.12
2022-12-18T10:07:07.274Z,88.12
2022-12-18T10:09:39.467Z,87.80
2022-12-18T10:12:26.498Z,86.97
2022-12-18T10:15:15.739Z,86.59
2022-12-18T10:18:02.594Z,86.85
2022-12-18T10:20:44.728Z,88.44
2022-12-18T10:23:27.390Z,87.13
2022-12-18T10:26:02.947Z,85.96
2022-12-18T10:28:32.125Z,87.49
2022-12-18T10:30:59.415Z,87.89
2022-12-18T10:33:30.466Z,86.42
2022-12-18T10:35:57.221Z,85.27
2022-12-18T10:38:32.578Z,85.60
2022-12-18T10:41:10.460Z,83.68
2022-12-18T10:43:40.952Z,82.88
2022-12-18T10:46:10.152Z,85.22
2022-12-18T10:48:48.915Z,85.00
2022-12-18T10:51:37.105Z,85.85
2022-12-18T10:54:06.290Z,85.29
2022-12-18T10:56:37.135Z,83.88
2022-12-18T10:59:07.319Z,84.13
2022-12-18T11:01:49.780Z,85.21
2022-12-18T11:04:28.322Z,88.04
2022-12-18T11:07:04.114Z,90.11
2022-12-18T11:09:39.394Z,90.47
2022-12-18T11:12:17.698Z,88.87
2022-12-18T11:14:48.578Z,89.08
2022-12-18T11:17:36.438Z,87.91
2022-12-18T11:20:10.902Z,87.65
2022-12-18T11:22:39.074Z,87.39
2022-12-18T11:25:35.793Z,88.29
2022-12-18T11:28:05.544Z,87.93
2022-12-18T11:30:31.994Z,86.32
2022-12-18T11:33:11.158Z,85.61
2022-12-18T11:35:56.514Z,87.16
2022-12-18T11:38:24.964Z,87.74
2022-12-18T11:41:06.558Z,85.78
2022-12-18T11:43:39.770Z,86.09
2022-12-18T11:46:20.168Z,84.54
2022-12-18T11:49:07.152Z,84.02
2022-12-18T11:51:38.761Z,83.99
2022-12-18T11:54:15.021Z,84.99
2022-12-18T11:56:49.667Z,85.29
2022-12-18T11:59:28.326Z,85.58
2022-12-18T12:02:00.318Z,87.98
2022-12-18T12:04:40.121Z,89.23
2022-12-18T12:07:42.909Z,89.79
2022-12-18T12:10:35.334Z,91.39
2022-12-18T12:13:39.688Z,91.54
2022-12-18T12:16:27.752Z,90.97
2022-12-18T12:19:05.849Z,90.34
2022-12-18T12:21:55.238Z,91.85
2022-12-18T12:24:37.213Z,91.45
2022-12-18T12:27:12.842Z,90.28
2022-12-18T12:30:28.826Z,89.39
2022-12-18T12:33:14.149Z,88.13
2022-12-18T12:35:59.630Z,87.91
2022-12-18T12:38:33.259Z,85.62
2022-12-18T12:41:06.162Z,85.41
2022-12-18T12:43:50.801Z,86.71
2022-12-18T12:46:22.364Z,87.01
2022-12-18T12:49:00.537Z,85.41
2022-12-18T12:51:32.878Z,85.76
2022-12-18T12:54:02.847Z,86.68
2022-12-18T12:56:55.322Z,86.27
2022-12-18T12:59:37.118Z,88.17
2022-12-18T13:02:20.794Z,90.78
2022-12-18T13:04:52.304Z,89.62
2022-12-18T13:07:27.984Z,90.06
2022-12-18T13:10:19.041Z,89.36
2022-12-18T13:13:17.298Z,88.83
2022-12-18T13:15:46.183Z,88.40
2022-12-18T13:18:15.361Z,88.80
2022-12-18T13:20:55.269Z,90.21
2022-12-18T13:23:24.718Z,88.11
2022-12-18T13:26:12.983Z,87.74
2022-12-18T13:28:45.909Z,87.48
2022-12-18T13:31:31.169Z,87.91
2022-12-18T13:34:29.521Z,90.63
2022-12-18T13:37:18.043Z,90.61
2022-12-18T13:39:44.556Z,90.17
2022-12-18T13:42:33.180Z,89.65
2022-12-18T13:45:00.399Z,88.64
2022-12-18T13:47:39.200Z,87.81
2022-12-18T13:50:24.605Z,87.83
2022-12-18T13:52:51.900Z,88.91
2022-12-18T13:55:20.480Z,90.57
2022-12-18T13:57:47.915Z,91.37
2022-12-18T14:00:23.520Z,91.01
2022-12-18T14:02:51.423Z,91.46
2022-12-18T14:05:33.079Z,91.58
2022-12-18T14:08:12.295Z,91.39
2022-12-18T14:10:48.505Z,91.02
2022-12-18T14:13:31.823Z,90.28
2022-12-18T14:16:01.782Z,90.77
2022-12-18T14:18:46.170Z,91.36
2022-12-18T14:21:21.567Z,90.23
2022-12-18T14:23:47.975Z,90.91
2022-12-18T14:26:30.208Z,91.87
2022-12-18T14:28:58.503Z,92.50
2022-12-18T14:31:32.972Z,93.37
2022-12-18T14:33:59.318Z,92.24
2022-12-18T14:36:29.305Z,91.25
2022-12-18T14:38:58.144Z,91.98
2022-12-18T14:41:25.724Z,91.45
2022-12-18T14:43:54.698Z,92.11
2022-12-18T14:46:34.258Z,92.30
2022-12-18T14:49:05.119Z,92.17
2022-12-18T14:51:34.633Z,92.67
2022-12-18T14:54:04.037Z,92.16
2022-12-18T14:56:33.096Z,92.20
2022-12-18T14:59:05.816Z,91.93
2022-12-18T15:01:34.830Z,92.00
2022-12-18T15:04:02.725Z,91.89
2022-12-18T15:06:41.290Z,92.21
2022-12-18T15:09:24.874Z,92.03
2022-12-18T15:11:58.529Z,92.97
2022-12-18T15:14:31.498Z,92.14
2022-12-18T15:17:00.045Z,93.11
2022-12-18T15:19:40.748Z,92.70
2022-12-18T15:22:34.719Z,93.11
2022-12-18T15:25:02.330Z,92.82
2022-12-18T15:27:30.816Z,93.71
2022-12-18T15:30:09.270Z,94.19
2022-12-18T15:32:38.041Z,94.07
2022-12-18T15:35:11.014Z,92.93
2022-12-18T15:37:38.358Z,91.51
2022-12-18T15:40:07.087Z,92.06
2022-12-18T15:42:52.283Z,92.03
2022-12-18T15:45:19.632Z,91.85
2022-12-18T15:47:46.390Z,91.75
2022-12-18T15:50:12.775Z,91.03
2022-12-18T15:52:45.209Z,90.35
2022-12-18T15:55:32.365Z,90.70
2022-12-18T15:57:58.960Z,91.01
2022-12-18T16:00:26.130Z,91.53
2022-12-18T16:02:52.710Z,92.23
2022-12-18T16:05:21.613Z,92.04
2022-12-18T16:07:48.663Z,92.19
2022-12-18T16:10:15.579Z,93.01
2022-12-18T16:12:42.910Z,92.38
2022-12-18T16:15:14.339Z,91.95
2022-12-18T16:17:41.809Z,92.94
2022-12-18T16:20:19.721Z,92.54
2022-12-18T16:22:47.237Z,91.93
2022-12-18T16:25:21.425Z,92.39
2022-12-18T16:27:48.799Z,92.21
2022-12-18T16:30:18.721Z,91.65
2022-12-18T16:32:45.131Z,90.97
2022-12-18T16:35:13.571Z,91.73
2022-12-18T16:37:42.052Z,91.97
2022-12-18T16:40:11.457Z,92.62
2022-12-18T16:42:40.100Z,92.81
2022-12-18T16:45:08.567Z,94.00
2022-12-18T16:47:35.361Z,94.23
2022-12-18T16:50:02.119Z,94.50
2022-12-18T16:52:28.975Z,94.87
2022-12-18T16:54:55.272Z,94.77
2022-12-18T16:57:24.679Z,94.77
2022-12-18T16:59:52.751Z,94.89
2022-12-18T17:02:24.672Z,94.83
2022-12-18T17:04:55.152Z,94.54
2022-12-18T17:07:21.645Z,93.93
2022-12-18T17:09:48.717Z,93.54
2022-12-18T17:12:15.150Z,92.94
2022-12-18T17:14:41.465Z,92.28
2022-12-18T17:17:20.754Z,92.36
2022-12-18T17:19:48.375Z,92.38
2022-12-18T17:22:14.748Z,92.32
2022-12-18T17:24:41.066Z,92.39
2022-12-18T17:27:09.106Z,92.08
2022-12-18T17:29:35.673Z,92.22
2022-12-18T17:32:02.043Z,92.38
2022-12-18T17:34:29.934Z,92.35
2022-12-18T17:36:57.127Z,91.69
2022-12-18T17:39:23.526Z,91.49
2022-12-18T17:41:50.938Z,91.55
2022-12-18T17:44:17.600Z,92.39
2022-12-18T17:46:44.580Z,92.58
2022-12-18T17:49:12.125Z,93.37
2022-12-18T17:51:38.964Z,93.76
2022-12-18T17:54:05.723Z,93.97
2022-12-18T17:56:33.166Z,94.97
2022-12-18T17:59:00.158Z,94.81
2022-12-18T18:01:26.705Z,94.57
2022-12-18T18:03:56.425Z,94.23
2022-12-18T18:06:23.856Z,94.00
2022-12-18T18:08:50.603Z,94.87
2022-12-18T18:11:58.836Z,95.11
2022-12-18T18:14:26.907Z,95.34
2022-12-18T18:16:54.168Z,95.31
2022-12-18T18:19:24.210Z,95.21
2022-12-18T18:21:53.150Z,95.32
2022-12-18T18:24:23.291Z,95.73
2022-12-18T18:26:50.620Z,95.30
2022-12-18T18:29:20.843Z,95.27
2022-12-18T18:31:48.368Z,94.27
2022-12-18T18:34:18.029Z,94.04
2022-12-18T18:36:46.549Z,93.94
2022-12-18T18:39:13.952Z,93.53
2022-12-18T18:41:40.581Z,93.61
2022-12-18T18:44:10.652Z,93.06
2022-12-18T18:46:37.026Z,92.49
2022-12-18T18:49:03.910Z,92.78
2022-12-18T18:51:34.857Z,92.46
2022-12-18T18:54:01.743Z,92.06
2022-12-18T18:59:15.671Z,91.73
2022-12-18T19:01:42.645Z,91.80
2022-12-18T19:04:09.212Z,90.88
2022-12-18T19:06:35.735Z,91.68
2022-12-18T19:09:05.206Z,91.43
2022-12-18T19:11:50.138Z,91.82
2022-12-18T19:14:17.489Z,92.40
2022-12-18T19:16:45.384Z,92.07
2022-12-18T19:19:13.106Z,92.00
2022-12-18T19:21:40.841Z,92.42
2022-12-18T19:24:07.694Z,93.11
2022-12-18T19:26:35.886Z,92.28
2022-12-18T19:29:08.270Z,92.50
2022-12-18T19:31:36.895Z,91.94
2022-12-18T19:34:07.754Z,91.21
2022-12-18T19:36:36.453Z,91.89
2022-12-18T19:39:12.707Z,93.32
2022-12-18T19:41:39.600Z,93.47
2022-12-18T19:44:08.290Z,93.19
2022-12-18T19:46:35.493Z,93.31
2022-12-18T19:49:02.279Z,93.04
2022-12-18T19:51:30.659Z,93.35
2022-12-18T19:54:01.430Z,93.38
2022-12-18T19:56:31.084Z,93.59
2022-12-18T19:58:57.944Z,93.66
2022-12-18T20:01:25.835Z,93.83
2022-12-18T20:03:55.072Z,92.99
2022-12-18T20:06:32.444Z,93.40
2022-12-18T20:09:01.822Z,93.79
2022-12-18T20:11:33.327Z,94.35
2022-12-18T20:14:03.255Z,94.53
2022-12-18T20:16:29.835Z,94.44
2022-12-18T20:18:58.104Z,93.98
2022-12-18T20:21:25.390Z,94.43
2022-12-18T20:23:52.058Z,95.32
2022-12-18T20:26:19.650Z,94.74
2022-12-18T20:28:46.066Z,94.75
2022-12-18T20:31:13.685Z,93.54
2022-12-18T20:33:41.604Z,93.52
2022-12-18T20:36:13.350Z,93.40
2022-12-18T20:38:40.873Z,93.38
2022-12-18T20:41:16.591Z,93.10
2022-12-18T20:43:44.109Z,92.62
2022-12-18T20:46:12.952Z,93.18
2022-12-18T20:48:40.942Z,93.95
2022-12-18T20:51:18.449Z,94.74
2022-12-18T20:53:46.241Z,94.37
2022-12-18T20:56:21.129Z,94.20
2022-12-18T20:58:49.700Z,94.16
2022-12-18T21:01:19.205Z,93.69
2022-12-18T21:03:47.030Z,93.81
2022-12-18T21:06:15.696Z,93.95
2022-12-18T21:08:43.177Z,94.18
2022-12-18T21:11:35.929Z,94.06
2022-12-18T21:14:04.089Z,95.07
2022-12-18T21:16:30.798Z,95.74
2022-12-18T21:18:58.203Z,95.22
2022-12-18T21:21:26.936Z,95.12
2022-12-18T21:23:53.810Z,95.43
2022-12-18T21:26:23.421Z,95.37
2022-12-18T21:28:55.362Z,95.24
2022-12-18T21:31:24.215Z,94.93
2022-12-18T21:33:51.063Z,94.97
2022-12-18T21:36:22.362Z,95.16
2022-12-18T21:38:48.772Z,95.38
2022-12-18T21:41:41.956Z,95.46
2022-12-18T21:44:12.247Z,95.31
2022-12-18T21:46:41.079Z,95.21
2022-12-18T21:49:09.029Z,94.74
2022-12-18T21:51:36.428Z,94.59
2022-12-18T21:54:02.825Z,95.01
2022-12-18T21:56:49.714Z,94.40
2022-12-18T21:59:25.267Z,93.60
2022-12-18T22:01:53.185Z,94.34
2022-12-18T22:04:20.472Z,94.03
2022-12-18T22:06:48.909Z,93.88
2022-12-18T22:09:18.238Z,94.48
2022-12-18T22:11:44.909Z,94.80
2022-12-18T22:14:12.121Z,94.79
2022-12-18T22:16:38.478Z,94.51
2022-12-18T22:19:06.881Z,93.88
2022-12-18T22:21:35.437Z,93.36
2022-12-18T22:24:12.544Z,94.12
2022-12-18T22:26:40.287Z,95.59
2022-12-18T22:29:26.416Z,95.61
2022-12-18T22:31:52.765Z,96.01
2022-12-18T22:34:22.853Z,95.35
2022-12-18T22:36:51.129Z,94.89
2022-12-18T22:39:20.468Z,95.42
2022-12-18T22:41:48.028Z,94.84
2022-12-18T22:44:15.717Z,95.44
2022-12-18T22:46:49.415Z,95.26
2022-12-18T22:49:34.734Z,95.11
2022-12-18T22:52:02.193Z,95.10
2022-12-18T22:54:28.545Z,95.58
2022-12-18T22:56:55.924Z,95.08
2022-12-18T22:59:23.264Z,95.01
2022-12-18T23:01:51.290Z,95.22
2022-12-18T23:04:23.871Z,95.09
2022-12-18T23:06:52.382Z,94.78
2022-12-18T23:09:20.271Z,95.16
2022-12-18T23:11:47.673Z,94.89
2022-12-18T23:14:14.910Z,94.45
2022-12-18T23:16:41.264Z,94.59
2022-12-18T23:19:09.134Z,94.41
2022-12-18T23:21:35.607Z,93.78
2022-12-18T23:24:02.022Z,93.95
2022-12-18T23:26:28.979Z,93.96
2022-12-18T23:28:56.681Z,94.12
2022-12-18T23:31:27.210Z,93.75
2022-12-18T23:33:56.713Z,93.59
2022-12-18T23:36:24.022Z,93.48
2022-12-18T23:38:55.302Z,92.96
2022-12-18T23:41:25.151Z,93.53
2022-12-18T23:43:52.392Z,94.01
2022-12-18T23:46:27.799Z,94.48
2022-12-18T23:49:01.121Z,94.58
2022-12-18T23:51:29.171Z,94.39
2022-12-18T23:53:58.085Z,95.01
2022-12-18T23:56:25.590Z,95.13
2022-12-18T23:58:53.019Z,94.97
